createdAt,value
2022-08-21T00:02:17.591Z,1.00
2022-08-21T00:04:35.553Z,1.08
2022-08-21T00:06:54.528Z,1.10
2022-08-21T00:09:12.281Z,1.00
2022-08-21T00:11:30.235Z,1.17
2022-08-21T00:13:48.120Z,1.10
2022-08-21T00:16:05.994Z,1.33
2022-08-21T00:18:24.069Z,1.20
2022-08-21T00:20:42.539Z,1.20
2022-08-21T00:23:00.289Z,1.00
2022-08-21T00:25:19.795Z,1.30
2022-08-21T00:27:43.482Z,1.30
2022-08-21T00:30:01.262Z,1.50
2022-08-21T00:32:26.150Z,1.10
2022-08-21T00:34:43.919Z,1.05
2022-08-21T00:37:01.804Z,1.10
2022-08-21T00:39:19.673Z,1.00
2022-08-21T00:41:43.310Z,1.15
2022-08-21T00:44:01.574Z,1.10
2022-08-21T00:46:19.655Z,1.10
2022-08-21T00:48:37.505Z,1.20
2022-08-21T00:51:19.637Z,1.00
2022-08-21T00:53:45.789Z,1.08
2022-08-21T00:56:10.902Z,1.13
2022-08-21T00:58:29.705Z,1.20
2022-08-21T01:00:49.375Z,1.23
2022-08-21T01:03:12.474Z,1.13
2022-08-21T01:05:31.757Z,1.13
2022-08-21T01:07:49.544Z,1.20
2022-08-21T01:10:08.071Z,1.38
2022-08-21T01:12:25.868Z,1.02
2022-08-21T01:14:44.251Z,1.30
2022-08-21T01:17:04.034Z,1.20
2022-08-21T01:19:23.076Z,1.20
2022-08-21T01:21:40.947Z,1.45
2022-08-21T01:23:59.170Z,1.20
2022-08-21T01:26:18.111Z,1.23
2022-08-21T01:28:42.372Z,1.42
2022-08-21T01:31:00.827Z,1.35
2022-08-21T01:33:19.909Z,1.40
2022-08-21T01:35:37.720Z,1.30
2022-08-21T01:37:55.607Z,1.20
2022-08-21T01:40:14.406Z,1.40
2022-08-21T01:42:32.260Z,1.35
2022-08-21T01:44:50.082Z,1.23
2022-08-21T01:47:14.621Z,1.25
2022-08-21T01:49:32.933Z,1.30
2022-08-21T01:51:50.671Z,1.40
2022-08-21T01:54:08.440Z,1.33
2022-08-21T01:56:27.168Z,1.48
2022-08-21T01:58:46.190Z,1.40
2022-08-21T02:01:04.897Z,1.38
2022-08-21T02:03:35.152Z,1.40
2022-08-21T02:05:53.298Z,1.38
2022-08-21T02:08:11.032Z,1.42
2022-08-21T02:10:30.688Z,1.30
2022-08-21T02:12:48.549Z,1.60
2022-08-21T02:15:07.001Z,1.30
2022-08-21T02:17:25.113Z,1.40
2022-08-21T02:19:43.318Z,1.50
2022-08-21T02:22:01.066Z,1.40
2022-08-21T02:24:18.867Z,1.30
2022-08-21T02:26:36.836Z,1.38
2022-08-21T02:28:54.986Z,1.60
2022-08-21T02:31:12.910Z,1.42
2022-08-21T02:33:30.786Z,1.48
2022-08-21T02:35:49.427Z,1.20
2022-08-21T02:38:08.764Z,1.40
2022-08-21T02:40:33.289Z,1.50
2022-08-21T02:42:51.156Z,1.40
2022-08-21T02:45:09.650Z,1.30
2022-08-21T02:47:27.409Z,1.48
2022-08-21T02:49:45.263Z,1.45
2022-08-21T02:52:03.245Z,1.38
2022-08-21T02:54:21.065Z,1.35
2022-08-21T02:56:38.787Z,1.50
2022-08-21T02:58:56.659Z,1.60
2022-08-21T03:01:14.968Z,1.48
2022-08-21T03:03:35.611Z,1.60
2022-08-21T03:05:54.460Z,1.50
2022-08-21T03:08:13.578Z,1.50
2022-08-21T03:10:32.114Z,1.42
2022-08-21T03:12:50.611Z,1.65
2022-08-21T03:15:10.398Z,1.60
2022-08-21T03:17:29.729Z,1.60
2022-08-21T03:19:48.116Z,1.40
2022-08-21T03:22:06.445Z,1.50
2022-08-21T03:24:24.249Z,1.50
2022-08-21T03:26:41.973Z,1.50
2022-08-21T03:28:59.801Z,1.40
2022-08-21T03:31:18.727Z,1.98
2022-08-21T03:33:36.730Z,1.58
2022-08-21T03:35:58.996Z,1.77
2022-08-21T03:38:16.740Z,1.60
2022-08-21T03:40:34.503Z,1.58
2022-08-21T03:42:52.829Z,1.70
2022-08-21T03:45:11.045Z,1.60
2022-08-21T03:47:28.847Z,1.63
2022-08-21T03:49:46.663Z,1.50
2022-08-21T03:52:04.734Z,1.60
2022-08-21T03:54:23.066Z,1.48
2022-08-21T03:56:40.811Z,1.58
2022-08-21T03:58:58.729Z,1.98
2022-08-21T04:01:16.527Z,1.67
2022-08-21T04:03:36.029Z,1.60
2022-08-21T04:05:53.944Z,1.60
2022-08-21T04:08:11.879Z,1.40
2022-08-21T04:10:31.502Z,1.67
2022-08-21T04:12:49.331Z,1.63
2022-08-21T04:15:07.396Z,1.80
2022-08-21T04:17:25.144Z,1.75
2022-08-21T04:19:42.926Z,2.13
2022-08-21T04:22:00.758Z,1.60
2022-08-21T04:24:18.591Z,2.10
2022-08-21T04:26:36.977Z,1.70
2022-08-21T04:28:57.024Z,1.60
2022-08-21T04:31:14.764Z,2.00
2022-08-21T04:33:32.685Z,1.67
2022-08-21T04:35:51.278Z,1.60
2022-08-21T04:38:09.625Z,1.70
2022-08-21T04:40:28.406Z,1.95
2022-08-21T04:42:51.113Z,2.13
2022-08-21T04:47:36.830Z,1.85
2022-08-21T04:50:04.707Z,2.05
2022-08-21T04:52:23.718Z,2.03
2022-08-21T04:54:41.730Z,1.80
2022-08-21T04:57:09.701Z,2.00
2022-08-21T04:59:36.696Z,2.30
2022-08-21T05:01:57.787Z,1.92
2022-08-21T05:04:18.237Z,1.88
2022-08-21T05:06:38.465Z,2.15
2022-08-21T05:09:01.861Z,2.00
2022-08-21T05:11:21.079Z,1.90
2022-08-21T05:13:39.030Z,2.00
2022-08-21T05:15:56.856Z,1.80
2022-08-21T05:18:14.720Z,1.83
2022-08-21T05:20:32.977Z,1.70
2022-08-21T05:22:50.819Z,1.85
2022-08-21T05:25:10.596Z,1.83
2022-08-21T05:27:31.670Z,1.77
2022-08-21T05:29:50.278Z,1.75
2022-08-21T05:32:12.495Z,1.88
2022-08-21T05:34:30.464Z,1.77
2022-08-21T05:36:48.302Z,1.83
2022-08-21T05:39:06.120Z,1.80
2022-08-21T05:41:23.972Z,1.73
2022-08-21T05:43:42.013Z,1.75
2022-08-21T05:45:59.734Z,1.90
2022-08-21T05:48:20.910Z,1.90
2022-08-21T05:50:39.226Z,1.90
2022-08-21T05:52:57.340Z,2.00
2022-08-21T05:55:24.904Z,2.03
2022-08-21T05:57:44.553Z,1.63
2022-08-21T06:00:02.365Z,1.60
2022-08-21T06:02:20.989Z,1.80
2022-08-21T06:04:42.532Z,1.75
2022-08-21T06:07:00.349Z,1.80
2022-08-21T06:09:18.119Z,2.00
2022-08-21T06:11:36.140Z,1.92
2022-08-21T06:13:54.116Z,2.10
2022-08-21T06:16:16.585Z,2.30
2022-08-21T06:18:34.639Z,1.95
2022-08-21T06:20:52.413Z,1.90
2022-08-21T06:23:10.205Z,1.92
2022-08-21T06:25:27.946Z,1.70
2022-08-21T06:27:45.712Z,1.60
2022-08-21T06:30:04.052Z,1.30
2022-08-21T06:32:21.978Z,1.58
2022-08-21T06:34:40.872Z,1.40
2022-08-21T06:36:58.681Z,1.70
2022-08-21T06:39:30.515Z,1.27
2022-08-21T06:41:49.182Z,1.37
2022-08-21T06:44:07.468Z,1.55
2022-08-21T06:46:29.093Z,1.40
2022-08-21T06:48:46.890Z,1.50
2022-08-21T06:51:04.788Z,1.63
2022-08-21T06:53:22.875Z,1.40
2022-08-21T06:55:41.286Z,1.30
2022-08-21T06:57:59.111Z,1.35
2022-08-21T07:00:17.015Z,1.23
2022-08-21T07:02:34.927Z,1.42
2022-08-21T07:04:52.787Z,1.50
2022-08-21T07:07:13.843Z,1.50
2022-08-21T07:09:32.142Z,1.30
2022-08-21T07:11:52.284Z,1.45
2022-08-21T07:14:10.400Z,1.30
2022-08-21T07:16:42.077Z,1.40
2022-08-21T07:19:01.171Z,1.10
2022-08-21T07:21:25.222Z,1.33
2022-08-21T07:23:45.055Z,1.40
2022-08-21T07:26:03.160Z,1.40
2022-08-21T07:28:22.807Z,1.40
2022-08-21T07:30:40.711Z,1.15
2022-08-21T07:32:59.023Z,1.40
2022-08-21T07:35:17.897Z,1.17
2022-08-21T07:37:36.015Z,1.10
2022-08-21T07:39:54.237Z,1.30
2022-08-21T07:42:12.046Z,1.20
2022-08-21T07:44:29.970Z,1.10
2022-08-21T07:46:47.746Z,1.40
2022-08-21T07:49:05.809Z,1.23
2022-08-21T07:51:25.407Z,1.38
2022-08-21T07:53:43.419Z,1.50
2022-08-21T07:56:01.470Z,1.40
2022-08-21T07:58:19.293Z,1.30
2022-08-21T08:00:37.112Z,1.30
2022-08-21T08:02:55.750Z,1.10
2022-08-21T08:05:14.170Z,1.42
2022-08-21T08:07:32.227Z,1.33
2022-08-21T08:09:50.101Z,1.30
2022-08-21T08:12:08.013Z,1.23
2022-08-21T08:14:30.628Z,1.00
2022-08-21T08:16:49.518Z,1.00
2022-08-21T08:19:07.306Z,1.17
2022-08-21T08:21:25.161Z,1.25
2022-08-21T08:23:45.142Z,1.00
2022-08-21T08:26:06.625Z,1.10
2022-08-21T08:28:25.456Z,1.00
2022-08-21T08:30:43.507Z,1.30
2022-08-21T08:33:02.126Z,0.98
2022-08-21T08:35:24.354Z,1.13
2022-08-21T08:40:00.405Z,1.08
2022-08-21T08:42:34.016Z,1.30
2022-08-21T08:44:57.778Z,0.95
2022-08-21T08:47:18.150Z,1.00
2022-08-21T08:49:42.784Z,0.93
2022-08-21T08:52:27.096Z,1.02
2022-08-21T08:54:47.142Z,0.88
2022-08-21T08:57:06.877Z,0.93
2022-08-21T08:59:28.551Z,0.98
2022-08-21T09:01:48.783Z,0.80
2022-08-21T09:04:07.272Z,0.90
2022-08-21T09:06:25.674Z,0.80
2022-08-21T09:08:43.519Z,0.85
2022-08-21T09:11:04.522Z,0.90
2022-08-21T09:13:39.193Z,1.00
2022-08-21T09:16:12.134Z,1.00
2022-08-21T09:21:07.126Z,0.90
2022-08-21T09:23:38.788Z,1.10
2022-08-21T09:25:56.510Z,0.73
2022-08-21T09:28:15.912Z,0.85
2022-08-21T09:30:35.069Z,0.88
2022-08-21T09:32:52.809Z,0.93
2022-08-21T09:35:16.710Z,1.00
2022-08-21T09:37:36.270Z,1.00
2022-08-21T09:39:54.039Z,0.95
2022-08-21T09:42:12.426Z,1.10
2022-08-21T09:44:31.289Z,0.80
2022-08-21T09:46:56.361Z,1.10
2022-08-21T09:49:27.950Z,1.00
2022-08-21T09:51:52.463Z,0.98
2022-08-21T09:54:14.391Z,0.90
2022-08-21T09:56:54.650Z,1.23
2022-08-21T09:59:36.435Z,1.10
2022-08-21T10:01:55.696Z,1.20
2022-08-21T10:04:14.280Z,1.20
2022-08-21T10:06:32.289Z,1.20
2022-08-21T10:08:50.435Z,1.20
2022-08-21T10:11:12.633Z,1.38
2022-08-21T10:13:50.082Z,1.42
2022-08-21T10:16:34.872Z,1.33
2022-08-21T10:18:57.152Z,1.20
2022-08-21T10:21:17.928Z,1.13
2022-08-21T10:23:55.974Z,1.27
2022-08-21T10:26:23.126Z,1.20
2022-08-21T10:28:57.687Z,1.40
2022-08-21T10:31:22.006Z,1.25
2022-08-21T10:33:52.094Z,1.27
2022-08-21T10:36:13.133Z,1.40
2022-08-21T10:39:07.401Z,1.10
2022-08-21T10:41:24.688Z,1.30
2022-08-21T10:44:02.856Z,1.20
2022-08-21T10:46:32.704Z,1.40
2022-08-21T10:48:59.674Z,1.30
2022-08-21T10:51:29.233Z,1.20
2022-08-21T10:53:52.781Z,1.10
2022-08-21T10:56:22.861Z,1.00
2022-08-21T10:58:58.934Z,1.05
2022-08-21T11:01:19.884Z,1.23
2022-08-21T11:03:42.807Z,0.98
2022-08-21T11:06:08.140Z,1.10
2022-08-21T11:08:29.927Z,1.10
2022-08-21T11:10:57.762Z,1.08
2022-08-21T11:13:21.398Z,1.00
2022-08-21T11:16:11.038Z,1.00
2022-08-21T11:18:38.713Z,1.10
2022-08-21T11:21:17.392Z,1.08
2022-08-21T11:23:58.497Z,1.20
2022-08-21T11:26:19.242Z,1.00
2022-08-21T11:28:42.052Z,1.15
2022-08-21T11:31:04.560Z,0.98
2022-08-21T11:33:22.705Z,1.00
2022-08-21T11:35:46.536Z,0.80
2022-08-21T11:38:14.881Z,0.85
2022-08-21T11:40:32.785Z,0.90
2022-08-21T11:43:00.340Z,1.08
2022-08-21T11:45:29.033Z,0.90
2022-08-21T11:47:53.784Z,0.80
2022-08-21T11:50:29.775Z,0.80
2022-08-21T11:52:53.046Z,0.80
2022-08-21T11:55:31.676Z,0.90
2022-08-21T11:57:55.441Z,0.82
2022-08-21T12:00:18.357Z,0.60
2022-08-21T12:02:38.184Z,0.70
2022-08-21T12:05:08.872Z,0.60
2022-08-21T12:07:32.338Z,0.70
2022-08-21T12:09:55.292Z,0.77
2022-08-21T12:12:15.182Z,0.70
2022-08-21T12:14:39.139Z,0.70
2022-08-21T12:17:05.763Z,0.70
2022-08-21T12:19:26.503Z,0.60
2022-08-21T12:21:53.102Z,0.68
2022-08-21T12:24:19.513Z,0.50
2022-08-21T12:26:49.464Z,0.70
2022-08-21T12:29:15.839Z,0.50
2022-08-21T12:31:33.712Z,0.50
2022-08-21T12:33:53.872Z,0.80
2022-08-21T12:36:17.327Z,0.68
2022-08-21T12:38:48.438Z,0.52
2022-08-21T12:41:08.077Z,0.80
2022-08-21T12:43:37.849Z,0.60
2022-08-21T12:45:55.682Z,0.40
2022-08-21T12:48:20.774Z,0.60
2022-08-21T12:50:46.989Z,0.60
2022-08-21T12:53:20.614Z,0.60
2022-08-21T12:55:42.379Z,0.50
2022-08-21T12:58:00.270Z,0.40
2022-08-21T13:00:22.394Z,0.60
2022-08-21T13:02:43.923Z,0.40
2022-08-21T13:05:03.917Z,0.35
2022-08-21T13:07:26.038Z,0.50
2022-08-21T13:09:48.384Z,0.70
2022-08-21T13:12:09.691Z,0.50
2022-08-21T13:14:32.639Z,0.60
2022-08-21T13:16:55.316Z,0.50
2022-08-21T13:21:33.130Z,0.57
2022-08-21T13:23:50.886Z,0.47
2022-08-21T13:26:18.538Z,0.70
2022-08-21T13:28:38.771Z,0.40
2022-08-21T13:30:56.870Z,0.50
2022-08-21T13:33:16.677Z,0.45
2022-08-21T13:36:07.233Z,0.70
2022-08-21T13:38:27.504Z,0.30
2022-08-21T13:40:50.147Z,0.40
2022-08-21T13:45:28.470Z,0.60
2022-08-21T13:47:47.378Z,0.40
2022-08-21T13:50:05.421Z,0.43
2022-08-21T13:52:27.203Z,0.40
2022-08-21T13:54:45.871Z,0.40
2022-08-21T13:57:04.125Z,0.60
2022-08-21T13:59:29.410Z,0.60
2022-08-21T14:02:05.533Z,0.60
2022-08-21T14:04:29.227Z,0.50
2022-08-21T14:06:47.199Z,0.60
2022-08-21T14:09:21.676Z,0.52
2022-08-21T14:11:40.526Z,0.40
2022-08-21T14:14:04.849Z,0.50
2022-08-21T14:16:43.800Z,0.63
2022-08-21T14:19:03.798Z,0.50
2022-08-21T14:21:44.666Z,0.50
2022-08-21T14:24:05.803Z,0.60
2022-08-21T14:26:24.539Z,0.50
2022-08-21T14:28:43.237Z,0.50
2022-08-21T14:31:13.609Z,0.47
2022-08-21T14:33:32.755Z,0.50
2022-08-21T14:35:50.661Z,0.60
2022-08-21T14:38:18.673Z,0.60
2022-08-21T14:40:36.493Z,0.57
2022-08-21T14:42:54.305Z,0.68
2022-08-21T14:45:17.389Z,0.60
2022-08-21T14:47:38.964Z,0.57
2022-08-21T14:49:56.692Z,0.50
2022-08-21T14:52:14.517Z,0.65
2022-08-21T14:54:33.030Z,0.70
2022-08-21T14:56:51.556Z,0.90
2022-08-21T14:59:12.295Z,0.90
2022-08-21T15:01:30.270Z,0.80
2022-08-21T15:03:49.512Z,1.00
2022-08-21T15:06:08.302Z,1.02
2022-08-21T15:08:26.167Z,0.95
2022-08-21T15:10:57.309Z,1.00
2022-08-21T15:13:22.866Z,1.15
2022-08-21T15:15:42.451Z,1.20
2022-08-21T15:18:00.712Z,1.23
2022-08-21T15:20:18.993Z,1.30
2022-08-21T15:22:37.010Z,1.52
2022-08-21T15:24:54.894Z,1.35
2022-08-21T15:27:13.565Z,1.23
2022-08-21T15:29:34.640Z,1.33
2022-08-21T15:31:58.063Z,1.40
2022-08-21T15:36:33.465Z,1.30
2022-08-21T15:38:51.594Z,1.40
2022-08-21T15:41:09.700Z,1.40
2022-08-21T15:43:31.715Z,1.35
2022-08-21T15:45:49.698Z,1.35
2022-08-21T15:48:07.613Z,1.50
2022-08-21T15:50:25.832Z,1.50
2022-08-21T15:52:43.792Z,1.40
2022-08-21T15:55:01.845Z,1.20
2022-08-21T15:57:22.413Z,1.42
2022-08-21T15:59:42.184Z,1.40
2022-08-21T16:02:00.048Z,1.50
2022-08-21T16:04:22.096Z,1.45
2022-08-21T16:06:55.414Z,1.27
2022-08-21T16:09:16.772Z,1.55
2022-08-21T16:11:34.660Z,1.40
2022-08-21T16:13:56.474Z,1.50
2022-08-21T16:16:18.038Z,1.42
2022-08-21T16:18:35.936Z,1.30
2022-08-21T16:20:54.186Z,1.30
2022-08-21T16:23:11.991Z,1.50
2022-08-21T16:25:30.045Z,1.70
2022-08-21T16:27:59.315Z,1.73
2022-08-21T16:30:17.987Z,1.52
2022-08-21T16:32:36.220Z,1.70
2022-08-21T16:34:54.491Z,1.88
2022-08-21T16:37:12.320Z,1.77
2022-08-21T16:39:41.845Z,1.75
2022-08-21T16:42:02.124Z,1.52
2022-08-21T16:44:41.343Z,1.50
2022-08-21T16:47:27.310Z,1.50
2022-08-21T16:49:46.763Z,1.50
2022-08-21T16:52:05.516Z,1.70
2022-08-21T16:54:24.118Z,1.70
2022-08-21T16:56:47.004Z,2.10
2022-08-21T16:59:05.778Z,1.90
2022-08-21T17:01:26.202Z,1.70
2022-08-21T17:03:45.913Z,1.67
2022-08-21T17:06:04.415Z,1.52
2022-08-21T17:08:22.417Z,1.80
2022-08-21T17:10:44.367Z,1.90
2022-08-21T17:13:06.401Z,1.80
2022-08-21T17:15:30.395Z,1.92
2022-08-21T17:17:48.327Z,1.70
2022-08-21T17:20:06.543Z,1.70
2022-08-21T17:22:24.686Z,1.80
2022-08-21T17:24:42.505Z,1.85
2022-08-21T17:27:00.446Z,6.25
2022-08-21T17:29:21.158Z,2.95
2022-08-21T17:31:40.500Z,1.88
2022-08-21T17:33:58.405Z,1.70
2022-08-21T17:36:17.963Z,1.92
2022-08-21T17:38:37.690Z,1.65
2022-08-21T17:40:55.833Z,2.10
2022-08-21T17:43:15.334Z,1.77
2022-08-21T17:45:33.199Z,3.75
2022-08-21T17:47:55.624Z,2.20
2022-08-21T17:50:15.119Z,1.75
2022-08-21T17:52:36.983Z,1.83
2022-08-21T17:54:54.839Z,1.70
2022-08-21T17:57:18.685Z,1.75
2022-08-21T17:59:36.550Z,1.92
2022-08-21T18:01:57.605Z,1.90
2022-08-21T18:04:16.668Z,1.77
2022-08-21T18:06:35.330Z,1.85
2022-08-21T18:08:53.534Z,1.80
2022-08-21T18:11:11.414Z,1.80
2022-08-21T18:13:42.123Z,1.98
2022-08-21T18:16:02.418Z,1.77
2022-08-21T18:18:21.557Z,1.67
2022-08-21T18:20:39.382Z,1.85
2022-08-21T18:22:57.947Z,1.95
2022-08-21T18:25:16.333Z,1.63
2022-08-21T18:27:35.044Z,1.90
2022-08-21T18:29:55.212Z,1.73
2022-08-21T18:32:30.910Z,1.63
2022-08-21T18:34:50.723Z,2.00
2022-08-21T18:37:10.050Z,1.77
2022-08-21T18:39:51.837Z,1.65
2022-08-21T18:42:36.453Z,1.63
2022-08-21T18:44:57.001Z,1.83
2022-08-21T18:47:19.722Z,1.83
2022-08-21T18:51:57.397Z,1.80
2022-08-21T18:54:16.046Z,2.67
2022-08-21T18:56:37.563Z,3.13
2022-08-21T18:58:58.304Z,4.95
2022-08-21T19:01:16.755Z,3.78
2022-08-21T19:03:45.412Z,2.00
2022-08-21T19:06:46.230Z,2.30
2022-08-21T19:13:05.307Z,2.05
2022-08-21T19:15:26.875Z,2.00
2022-08-21T19:17:50.601Z,1.88
2022-08-21T19:20:24.563Z,1.60
2022-08-21T19:22:53.111Z,2.00
2022-08-21T19:25:12.314Z,2.20
2022-08-21T19:27:30.420Z,2.03
2022-08-21T19:29:49.034Z,2.15
2022-08-21T19:32:08.312Z,1.75
2022-08-21T19:34:28.505Z,1.77
2022-08-21T19:36:47.401Z,1.77
2022-08-21T19:39:12.255Z,1.75
2022-08-21T19:41:35.950Z,2.00
2022-08-21T19:43:58.420Z,1.88
2022-08-21T19:46:19.505Z,2.00
2022-08-21T19:48:38.938Z,2.10
2022-08-21T19:50:59.068Z,1.90
2022-08-21T19:53:17.565Z,1.98
2022-08-21T19:55:37.196Z,1.70
2022-08-21T19:57:56.352Z,1.90
2022-08-21T20:02:56.089Z,1.80
2022-08-21T20:05:14.114Z,1.95
2022-08-21T20:07:33.530Z,1.90
2022-08-21T20:09:52.081Z,2.05
2022-08-21T20:12:12.498Z,2.00
2022-08-21T20:14:31.803Z,2.20
2022-08-21T20:16:52.693Z,1.88
2022-08-21T20:19:11.237Z,2.00
2022-08-21T20:21:30.398Z,1.88
2022-08-21T20:24:01.907Z,2.07
2022-08-21T20:26:20.766Z,2.45
2022-08-21T20:28:39.818Z,2.25
2022-08-21T20:30:58.451Z,2.97
2022-08-21T20:33:17.592Z,1.90
2022-08-21T20:35:36.063Z,1.95
2022-08-21T20:37:58.629Z,3.05
2022-08-21T20:40:20.836Z,2.53
2022-08-21T20:42:40.062Z,2.27
2022-08-21T20:44:58.319Z,2.33
2022-08-21T20:47:17.117Z,3.47
2022-08-21T20:49:38.294Z,2.40
2022-08-21T20:52:00.037Z,3.92
2022-08-21T20:54:21.665Z,3.25
2022-08-21T20:56:42.430Z,2.45
2022-08-21T20:59:03.968Z,2.03
2022-08-21T21:01:22.419Z,2.95
2022-08-21T21:03:43.224Z,2.13
2022-08-21T21:06:22.666Z,2.60
2022-08-21T21:08:46.690Z,2.17
2022-08-21T21:11:16.231Z,2.20
2022-08-21T21:13:39.374Z,2.20
2022-08-21T21:16:06.973Z,2.58
2022-08-21T21:18:32.947Z,2.33
2022-08-21T21:21:20.081Z,2.40
2022-08-21T21:23:47.569Z,2.78
2022-08-21T21:29:11.469Z,2.30
2022-08-21T21:31:32.575Z,2.00
2022-08-21T21:33:50.612Z,2.35
2022-08-21T21:36:11.596Z,2.45
2022-08-21T21:38:35.697Z,2.00
2022-08-21T21:41:00.396Z,2.10
2022-08-21T21:43:32.050Z,2.20
2022-08-21T21:46:05.425Z,1.65
2022-08-21T21:48:26.811Z,1.90
2022-08-21T21:51:01.098Z,1.77
2022-08-21T21:53:31.912Z,1.95
2022-08-21T21:55:55.778Z,2.22
2022-08-21T21:58:16.764Z,1.92
2022-08-21T22:01:08.163Z,1.90
2022-08-21T22:03:31.742Z,2.05
2022-08-21T22:06:14.370Z,1.90
2022-08-21T22:08:34.995Z,1.92
2022-08-21T22:13:57.447Z,1.70
2022-08-21T22:16:15.812Z,1.60
2022-08-21T22:18:37.803Z,1.83
2022-08-21T22:21:05.915Z,1.77
2022-08-21T22:23:27.966Z,1.95
2022-08-21T22:25:48.521Z,1.80
2022-08-21T22:30:48.482Z,1.67
2022-08-21T22:33:14.723Z,1.80
2022-08-21T22:35:33.762Z,1.95
2022-08-21T22:37:55.194Z,1.77
2022-08-21T22:40:15.919Z,1.85
2022-08-21T22:42:33.990Z,1.80
2022-08-21T22:45:05.574Z,1.65
2022-08-21T22:47:34.785Z,1.88
2022-08-21T22:52:24.976Z,2.00
2022-08-21T22:54:45.315Z,1.70
2022-08-21T22:57:09.073Z,1.90
2022-08-21T22:59:29.914Z,2.03
2022-08-21T23:01:54.010Z,1.85
2022-08-21T23:04:17.599Z,1.70
2022-08-21T23:06:43.060Z,1.98
2022-08-21T23:09:01.829Z,2.03
2022-08-21T23:11:23.397Z,1.73
2022-08-21T23:13:44.257Z,2.03
2022-08-21T23:16:11.902Z,2.00
2022-08-21T23:18:48.495Z,2.00
2022-08-21T23:21:15.562Z,1.90
2022-08-21T23:23:39.102Z,2.10
2022-08-21T23:26:17.420Z,2.10
2022-08-21T23:28:54.535Z,1.90
2022-08-21T23:31:17.410Z,2.30
2022-08-21T23:33:44.749Z,1.85
2022-08-21T23:36:24.315Z,2.10
2022-08-21T23:38:45.609Z,1.90
2022-08-21T23:41:11.238Z,2.10
2022-08-21T23:43:58.623Z,2.03
2022-08-21T23:46:35.084Z,2.13
2022-08-21T23:49:11.807Z,2.15
2022-08-21T23:51:58.354Z,1.90
2022-08-21T23:54:26.983Z,1.95
2022-08-21T23:56:52.036Z,1.90
2022-08-21T23:59:28.659Z,2.05
